Becket Corners, Massachusetts
Current Conditions -  °F | °C
As of 3:54 AM on Sunday 23 Nov 2014 (Local Time) from KPSF Reporting Station
Haze Haze  
Wind Chill: 34°   Ceiling: 3700
Heat Index: 34°   Visibility: 5mi
Dew Point: 32°   Wind: 0mph
Humidity: 92%   Direction: NA
Pressure: 30.07"   Gusts: NA
Location:  42.3623°N, 73.1505°W
Report Text: KPSF 230854Z AUTO 00000KT 5SM BR BKN037 OVC045 01/00 A3007 RMK AO2 RAB14E48 SLP188 P0002 60004 T00110000 58002 $
Loading
Personal Weather Stations






























Interactive Weather Map New forecast layout! Learn more

10-Day Weather Forecast

Advertisements
Track Severe Weather on mobile